Time;durP1;ratioP1;P1;durP2;ratioP2;P2;SDS_P1;SDS_P2;PMS_P1;PMS_P2;Temp;Humidity;BMP_temperature;BMP_pressure;BME280_temperature;BME280_humidity;BME280_pressure;Samples;Min_cycle;Max_cycle;Signal;HPM_P1;HPM_P2
2022/01/14 00:02:04;;;;;;;64.57;16.02;;;;;;;2.26;100.00;103812.44;5069459;28;20097;-76
2022/01/14 00:04:29;;;;;;;62.72;16.40;;;;;;;2.27;100.00;103827.00;5068282;28;20035;-76
2022/01/14 00:06:56;;;;;;;66.85;16.55;;;;;;;2.29;100.00;103818.63;5067122;28;20020;-76
2022/01/14 00:09:21;;;;;;;62.30;16.52;;;;;;;2.28;100.00;103832.22;5064965;28;20479;-77
2022/01/14 00:11:54;;;;;;;72.63;16.10;;;;;;;2.29;100.00;103830.53;5058429;28;20035;-76
2022/01/14 00:14:25;;;;;;;85.75;17.40;;;;;;;2.29;100.00;103825.41;5068233;28;20199;-77
2022/01/14 00:16:50;;;;;;;76.13;16.50;;;;;;;2.31;100.00;103824.72;5068986;28;20032;-77
2022/01/14 00:19:17;;;;;;;67.10;17.58;;;;;;;2.30;100.00;103825.50;5050121;28;20596;-77
2022/01/14 00:21:44;;;;;;;75.90;17.65;;;;;;;2.30;100.00;103822.94;5057427;28;20107;-77
2022/01/14 00:34:38;;;;;;;73.90;16.85;;;;;;;2.32;100.00;103815.38;5065592;28;20040;-76
2022/01/14 00:37:04;;;;;;;62.92;16.65;;;;;;;2.33;100.00;103810.31;5067139;28;20052;-77
2022/01/14 00:39:29;;;;;;;81.13;18.00;;;;;;;2.28;100.00;103796.38;5051347;28;20025;-77
2022/01/14 00:41:54;;;;;;;68.05;16.95;;;;;;;2.32;100.00;103803.41;5057027;28;20411;-77
2022/01/14 00:44:21;;;;;;;66.93;16.70;;;;;;;2.33;100.00;103802.63;5054598;28;20500;-77
2022/01/14 00:46:48;;;;;;;78.63;16.92;;;;;;;2.30;100.00;103786.22;5067755;28;20027;-77
2022/01/14 00:49:15;;;;;;;70.15;16.42;;;;;;;2.30;100.00;103781.13;5068736;28;20040;-76
2022/01/14 00:51:41;;;;;;;57.17;15.30;;;;;;;2.29;100.00;103779.34;5068475;28;20117;-76
2022/01/14 00:54:07;;;;;;;66.22;16.70;;;;;;;2.27;100.00;103771.56;5048383;28;20036;-77
2022/01/14 00:56:46;;;;;;;64.88;15.80;;;;;;;2.28;100.00;103765.66;5053938;28;20475;-77
2022/01/14 00:59:14;;;;;;;54.33;15.15;;;;;;;2.29;100.00;103777.66;5055676;28;20024;-78
2022/01/14 01:01:56;;;;;;;54.08;15.45;;;;;;;2.31;100.00;103775.22;5056927;28;20483;-77
2022/01/14 01:04:30;;;;;;;68.07;13.75;;;;;;;2.29;100.00;103774.22;5060670;28;20092;-78
2022/01/14 01:06:56;;;;;;;55.10;13.73;;;;;;;2.30;100.00;103773.44;5065436;28;20032;-77
2022/01/14 01:09:24;;;;;;;47.65;13.73;;;;;;;2.26;100.00;103762.13;5056641;28;20403;-78
2022/01/14 01:11:53;;;;;;;48.60;13.93;;;;;;;2.25;100.00;103754.38;5068808;28;20024;-78
2022/01/14 01:14:25;;;;;;;58.17;14.07;;;;;;;2.24;100.00;103750.06;5065174;28;20031;-77
2022/01/14 01:16:50;;;;;;;52.80;13.98;;;;;;;2.24;100.00;103753.50;5069593;28;20249;-75
2022/01/14 01:19:15;;;;;;;53.92;14.27;;;;;;;2.25;100.00;103754.38;5062290;28;20155;-76
2022/01/14 01:21:41;;;;;;;41.92;13.13;;;;;;;2.22;100.00;103759.31;5071560;28;20024;-76
2022/01/14 01:24:09;;;;;;;48.40;13.27;;;;;;;2.22;100.00;103761.88;5072719;28;20039;-76
2022/01/14 01:26:38;;;;;;;52.65;13.55;;;;;;;2.20;100.00;103760.91;5071574;28;20027;-76
2022/01/14 01:31:38;;;;;;;40.10;13.18;;;;;;;2.18;100.00;103763.41;5052566;28;20029;-76
2022/01/14 01:34:05;;;;;;;46.40;13.85;;;;;;;2.17;100.00;103756.50;5059823;28;20115;-77
2022/01/14 01:36:30;;;;;;;42.63;13.52;;;;;;;2.18;100.00;103762.50;5057421;28;20063;-76
2022/01/14 01:38:55;;;;;;;47.65;13.25;;;;;;;2.15;100.00;103759.75;5063655;28;20029;-76
2022/01/14 01:41:21;;;;;;;45.17;13.00;;;;;;;2.16;100.00;103758.97;5058804;28;20048;-77
2022/01/14 01:43:53;;;;;;;46.28;13.75;;;;;;;2.19;100.00;103761.69;5057228;28;20029;-76
2022/01/14 01:46:21;;;;;;;60.40;13.40;;;;;;;2.20;100.00;103753.22;5057816;28;20049;-76
2022/01/14 01:48:51;;;;;;;54.42;13.75;;;;;;;2.17;100.00;103756.50;5069476;28;20024;-76
2022/01/14 01:51:17;;;;;;;40.40;12.35;;;;;;;2.16;100.00;103743.63;5063847;28;20035;-77
2022/01/14 01:53:43;;;;;;;50.60;13.57;;;;;;;2.18;100.00;103752.28;5065587;28;20029;-77
2022/01/14 01:56:08;;;;;;;45.40;13.40;;;;;;;2.16;100.00;103751.28;5057131;28;20029;-77
2022/01/14 01:58:34;;;;;;;52.50;12.80;;;;;;;2.17;100.00;103756.50;5053868;28;20369;-77
2022/01/14 02:01:02;;;;;;;43.65;13.07;;;;;;;2.15;100.00;103754.63;5051855;28;20416;-76
2022/01/14 02:03:27;;;;;;;44.60;12.18;;;;;;;2.11;100.00;103753.59;5061451;28;20090;-76
2022/01/14 02:05:53;;;;;;;39.78;13.02;;;;;;;2.11;100.00;103761.28;5063895;28;20028;-76
2022/01/14 02:08:18;;;;;;;40.97;12.73;;;;;;;2.11;100.00;103757.84;5070346;28;20048;-76
2022/01/14 02:10:43;;;;;;;37.08;12.15;;;;;;;2.08;100.00;103752.53;5071241;28;20028;-76
2022/01/14 02:13:10;;;;;;;42.33;12.32;;;;;;;2.08;100.00;103744.84;5054569;28;20104;-76
2022/01/14 02:23:43;;;;;;;42.70;12.23;;;;;;;2.10;100.00;103739.03;5069671;28;20042;-76
2022/01/14 02:26:09;;;;;;;35.63;11.77;;;;;;;2.06;100.00;103739.63;5064884;28;20054;-76
2022/01/14 02:28:34;;;;;;;40.58;12.90;;;;;;;2.04;100.00;103741.25;5068340;28;20025;-76
2022/01/14 02:30:59;;;;;;;44.35;12.20;;;;;;;2.02;100.00;103736.81;5070716;28;20025;-76
2022/01/14 02:33:25;;;;;;;48.15;12.63;;;;;;;2.03;100.00;103739.47;5058494;28;20021;-76
2022/01/14 02:35:51;;;;;;;38.30;11.48;;;;;;;2.03;100.00;103731.81;5056636;28;20475;-76
2022/01/14 02:38:18;;;;;;;43.92;11.43;;;;;;;2.03;100.00;103738.59;5070947;28;20101;-76
2022/01/14 02:40:45;;;;;;;35.83;11.40;;;;;;;2.01;100.00;103737.63;5065902;28;20519;-75
2022/01/14 02:43:13;;;;;;;50.15;11.23;;;;;;;2.02;100.00;103741.94;5070815;28;20577;-76
2022/01/14 02:45:40;;;;;;;36.33;11.85;;;;;;;2.00;100.00;103746.97;5058577;28;20057;-76
2022/01/14 02:48:06;;;;;;;37.58;12.23;;;;;;;1.98;100.00;103730.63;5051524;28;20091;-76
2022/01/14 02:50:42;;;;;;;41.35;10.88;;;;;;;1.95;100.00;103727.91;5057501;28;20363;-76
2022/01/14 02:55:54;;;;;;;40.03;12.73;;;;;;;1.92;100.00;103723.50;5071026;28;20043;-76
2022/01/14 02:58:21;;;;;;;37.85;12.05;;;;;;;1.91;100.00;103714.06;5071250;28;20490;-76
2022/01/14 03:00:47;;;;;;;36.85;12.02;;;;;;;1.92;100.00;103710.72;5068422;28;20032;-76
2022/01/14 03:03:16;;;;;;;40.22;12.02;;;;;;;1.95;100.00;103726.25;5065507;28;20033;-76
2022/01/14 03:05:41;;;;;;;40.25;12.07;;;;;;;1.95;100.00;103712.56;5070744;28;20081;-76
2022/01/14 03:08:07;;;;;;;36.33;12.07;;;;;;;1.93;100.00;103711.59;5071113;28;20021;-76
2022/01/14 03:10:32;;;;;;;38.05;12.13;;;;;;;1.96;100.00;103712.66;5064471;28;20031;-76
2022/01/14 03:12:58;;;;;;;34.58;11.68;;;;;;;1.98;100.00;103716.16;5070737;28;20414;-76
2022/01/14 03:15:23;;;;;;;35.40;11.55;;;;;;;1.99;100.00;103717.94;5070603;28;20471;-76
2022/01/14 03:17:48;;;;;;;42.35;11.45;;;;;;;1.98;100.00;103717.84;5054614;28;20402;-76
2022/01/14 03:20:43;;;;;;;41.78;11.88;;;;;;;1.96;100.00;103712.66;5069358;28;20032;-76
2022/01/14 03:23:07;;;;;;;37.28;11.10;;;;;;;1.95;100.00;103718.56;5070098;28;20498;-76
2022/01/14 03:25:47;;;;;;;38.65;12.45;;;;;;;1.94;100.00;103721.91;5065533;28;20485;-76
2022/01/14 03:28:13;;;;;;;36.13;11.10;;;;;;;1.90;100.00;103714.88;5070331;28;20046;-76
2022/01/14 03:30:38;;;;;;;44.08;11.23;;;;;;;1.90;100.00;103714.88;5055382;28;20112;-76
2022/01/14 03:33:03;;;;;;;42.35;11.15;;;;;;;1.89;100.00;103718.22;5055048;28;20021;-76
2022/01/14 03:35:28;;;;;;;33.25;10.80;;;;;;;1.87;100.00;103722.34;5070305;28;20032;-76
2022/01/14 03:37:55;;;;;;;36.78;11.40;;;;;;;1.90;100.00;103721.66;5070472;28;20113;-76
2022/01/14 03:40:21;;;;;;;39.05;11.45;;;;;;;1.85;100.00;103707.69;5055479;28;20068;-75
2022/01/14 03:42:46;;;;;;;37.70;11.00;;;;;;;1.86;100.00;103709.47;5050963;28;20059;-76
2022/01/14 03:45:12;;;;;;;34.63;10.73;;;;;;;1.85;100.00;103711.16;5059037;28;20391;-75
2022/01/14 03:47:37;;;;;;;33.58;10.73;;;;;;;1.84;100.00;103704.25;5069363;28;20026;-76
2022/01/14 03:50:03;;;;;;;36.40;11.20;;;;;;;1.83;100.00;103699.09;5058354;28;20032;-75
2022/01/14 03:52:28;;;;;;;34.58;11.20;;;;;;;1.83;100.00;103701.66;5064672;28;20048;-76
2022/01/14 03:54:53;;;;;;;51.42;11.57;;;;;;;1.83;100.00;103709.31;5068816;28;20035;-76
2022/01/14 03:57:18;;;;;;;46.60;10.75;;;;;;;1.83;100.00;103702.53;5068965;28;20398;-76
2022/01/14 03:59:44;;;;;;;43.90;11.23;;;;;;;1.82;100.00;103700.75;5060136;28;20063;-76
2022/01/14 04:02:09;;;;;;;45.17;11.23;;;;;;;1.83;100.00;103699.09;5065185;28;20036;-76
2022/01/14 04:04:35;;;;;;;44.40;11.45;;;;;;;1.79;100.00;103697.13;5055265;28;20025;-76
2022/01/14 04:07:01;;;;;;;60.03;11.57;;;;;;;1.75;100.00;103695.19;5048247;28;20114;-75
2022/01/14 04:09:26;;;;;;;35.65;10.80;;;;;;;1.75;100.00;103690.09;5061474;28;20470;-76
2022/01/14 04:11:51;;;;;;;43.95;11.10;;;;;;;1.75;100.00;103695.19;5053580;28;20446;-76
2022/01/14 04:15:36;;;;;;;47.55;11.38;;;;;;;1.76;100.00;103696.97;5060173;28;20410;-75
2022/01/14 04:17:06;;;;;;;30.00;10.57;;;;;;;1.76;100.00;103694.41;5067628;28;20032;-76
2022/01/14 04:19:32;;;;;;;34.67;11.10;;;;;;;1.78;100.00;103692.81;5057848;28;20040;-76
2022/01/14 04:21:57;;;;;;;32.40;11.27;;;;;;;1.73;100.00;103684.88;5055205;28;20028;-76
2022/01/14 04:24:22;;;;;;;54.90;11.10;;;;;;;1.71;100.00;103688.13;5059494;28;20110;-76
2022/01/14 04:26:48;;;;;;;49.38;11.32;;;;;;;1.68;100.00;103695.63;5050754;28;20060;-76
2022/01/14 04:29:14;;;;;;;39.10;10.77;;;;;;;1.65;100.00;103693.75;5069336;28;20108;-76
2022/01/14 04:31:40;;;;;;;68.35;12.20;;;;;;;1.63;100.00;103691.94;5065478;28;20391;-75
2022/01/14 04:34:05;;;;;;;34.42;10.73;;;;;;;1.61;100.00;103690.94;5049288;28;20036;-76
2022/01/14 04:36:31;;;;;;;36.97;10.85;;;;;;;1.59;100.00;103681.50;5052369;28;20033;-76
2022/01/14 04:38:56;;;;;;;41.00;11.02;;;;;;;1.59;100.00;103680.63;5049478;28;20032;-77
2022/01/14 04:41:21;;;;;;;37.25;11.05;;;;;;;1.58;100.00;103678.84;5049745;28;20084;-76
2022/01/14 04:43:47;;;;;;;32.97;10.98;;;;;;;1.55;100.00;103676.16;5061223;28;20040;-76
2022/01/14 04:48:38;;;;;;;31.38;11.07;;;;;;;1.54;100.00;103675.25;5062912;28;20511;-76
2022/01/14 04:51:06;;;;;;;37.58;11.07;;;;;;;1.54;100.00;103679.50;5061534;28;20024;-76
2022/01/14 04:53:32;;;;;;;30.70;10.07;;;;;;;1.51;100.00;103682.72;5063692;28;20032;-76
2022/01/14 04:55:58;;;;;;;40.17;11.38;;;;;;;1.50;100.00;103673.28;5049778;28;20029;-76
2022/01/14 04:58:24;;;;;;;31.90;10.65;;;;;;;1.51;100.00;103669.06;5061829;28;20024;-77
2022/01/14 05:00:50;;;;;;;35.85;10.95;;;;;;;1.52;100.00;103653.84;5067872;28;20100;-76
2022/01/14 05:03:16;;;;;;;44.60;10.43;;;;;;;1.51;100.00;103648.63;5063045;28;20124;-76
2022/01/14 05:05:44;;;;;;;37.22;11.30;;;;;;;1.50;100.00;103641.78;5058825;28;20036;-76
2022/01/14 05:08:15;;;;;;;35.90;10.35;;;;;;;1.51;100.00;103646.06;5067786;28;20123;-76
2022/01/14 05:13:17;;;;;;;44.42;10.88;;;;;;;1.51;100.00;103639.28;5049128;28;20041;-76
2022/01/14 05:15:42;;;;;;;35.17;11.10;;;;;;;1.51;100.00;103638.41;5062307;28;20028;-76
2022/01/14 05:18:08;;;;;;;45.05;11.85;;;;;;;1.51;100.00;103634.16;5065199;28;20646;-76
2022/01/14 05:20:33;;;;;;;30.25;10.43;;;;;;;1.50;100.00;103644.34;5057642;28;20024;-76
2022/01/14 05:22:58;;;;;;;40.85;10.57;;;;;;;1.48;100.00;103643.34;5054073;28;20025;-76
2022/01/14 05:25:24;;;;;;;43.05;11.35;;;;;;;1.47;100.00;103647.56;5065156;28;20032;-76
2022/01/14 05:27:49;;;;;;;36.28;10.35;;;;;;;1.44;100.00;103638.84;5053017;28;20384;-76
2022/01/14 05:30:15;;;;;;;34.55;10.07;;;;;;;1.44;100.00;103647.38;5060133;28;20021;-75
2022/01/14 05:32:46;;;;;;;47.50;10.48;;;;;;;1.42;100.00;103646.44;5068338;28;20470;-75
2022/01/14 05:35:16;;;;;;;39.30;10.65;;;;;;;1.41;100.00;103633.56;5064740;28;20135;-75
2022/01/14 05:37:42;;;;;;;47.63;11.05;;;;;;;1.39;100.00;103636.03;5054813;28;20028;-76
2022/01/14 05:40:08;;;;;;;35.42;10.02;;;;;;;1.36;100.00;103640.09;5048642;28;20364;-76
2022/01/14 05:42:34;;;;;;;35.83;10.45;;;;;;;1.37;100.00;103644.38;5049580;28;20108;-76
2022/01/14 05:45:00;;;;;;;45.55;9.82;;;;;;;1.34;100.00;103642.53;5063332;28;20159;-76
2022/01/14 05:47:25;;;;;;;35.05;11.05;;;;;;;1.36;100.00;103635.84;5060039;28;20018;-76
2022/01/14 05:49:51;;;;;;;49.25;10.85;;;;;;;1.33;100.00;103627.13;5061571;28;20031;-75
2022/01/14 05:52:17;;;;;;;35.10;9.73;;;;;;;1.35;100.00;103633.22;5062028;28;20029;-76
2022/01/14 05:54:43;;;;;;;39.63;10.50;;;;;;;1.32;100.00;103631.34;5068300;28;20028;-76
2022/01/14 05:57:08;;;;;;;33.17;10.02;;;;;;;1.33;100.00;103629.66;5067115;28;20047;-76
2022/01/14 05:59:34;;;;;;;34.85;10.10;;;;;;;1.32;100.00;103633.91;5063863;28;20179;-76
2022/01/14 06:01:59;;;;;;;31.80;10.13;;;;;;;1.32;100.00;103628.78;5059909;28;20364;-76
2022/01/14 06:04:24;;;;;;;33.13;10.70;;;;;;;1.33;100.00;103628.00;5070306;28;20028;-75
2022/01/14 06:06:49;;;;;;;36.95;12.15;;;;;;;1.33;100.00;103629.66;5071915;28;20017;-76
2022/01/14 06:09:15;;;;;;;47.45;10.50;;;;;;;1.30;100.00;103639.72;5062835;28;20572;-76
2022/01/14 06:11:40;;;;;;;29.42;10.52;;;;;;;1.31;100.00;103629.56;5072047;28;20054;-76
2022/01/14 06:14:05;;;;;;;39.92;10.85;;;;;;;1.33;100.00;103642.44;5060096;28;20039;-75
2022/01/14 06:16:31;;;;;;;38.28;10.45;;;;;;;1.31;100.00;103659.34;5069592;28;20046;-76
2022/01/14 06:18:56;;;;;;;34.13;10.45;;;;;;;1.27;100.00;103653.19;5060740;28;20028;-75
2022/01/14 06:21:21;;;;;;;37.95;10.88;;;;;;;1.29;100.00;103643.06;5057276;28;20533;-75
2022/01/14 06:23:46;;;;;;;37.80;10.35;;;;;;;1.29;100.00;103649.06;5066315;28;20036;-76
2022/01/14 06:26:12;;;;;;;34.78;10.77;;;;;;;1.29;100.00;103643.94;5070917;28;20020;-76
2022/01/14 06:28:37;;;;;;;29.42;11.00;;;;;;;1.32;100.00;103648.34;5069647;28;20157;-76
2022/01/14 06:31:02;;;;;;;32.33;10.93;;;;;;;1.33;100.00;103643.31;5063755;28;20025;-76
2022/01/14 06:33:28;;;;;;;32.88;9.98;;;;;;;1.34;100.00;103645.09;5059345;28;20031;-76
2022/01/14 06:35:53;;;;;;;30.92;9.98;;;;;;;1.34;100.00;103639.09;5064664;28;20443;-76
2022/01/14 06:38:19;;;;;;;33.47;9.82;;;;;;;1.34;100.00;103644.22;5059024;28;20105;-76
2022/01/14 06:40:46;;;;;;;35.35;9.38;;;;;;;1.32;100.00;103640.69;5069450;28;20583;-76
2022/01/14 06:43:14;;;;;;;53.80;10.10;;;;;;;1.30;100.00;103638.03;5062908;28;20270;-76
2022/01/14 06:45:39;;;;;;;43.25;9.90;;;;;;;1.31;100.00;103639.78;5058004;28;20024;-76
2022/01/14 06:48:05;;;;;;;33.70;10.02;;;;;;;1.26;100.00;103643.75;5060519;28;20313;-77
2022/01/14 06:50:30;;;;;;;39.70;9.82;;;;;;;1.24;100.00;103640.22;5060335;28;20108;-76
2022/01/14 06:52:55;;;;;;;29.83;9.18;;;;;;;1.22;100.00;103641.81;5061304;28;20016;-76
2022/01/14 06:55:21;;;;;;;42.97;9.52;;;;;;;1.23;100.00;103645.25;5067126;28;20032;-76
2022/01/14 06:57:46;;;;;;;49.80;10.40;;;;;;;1.21;100.00;103647.72;5070102;28;20048;-76
2022/01/14 07:00:15;;;;;;;26.05;9.48;;;;;;;1.23;100.00;103652.94;5061263;28;20435;-76
2022/01/14 07:02:40;;;;;;;31.65;10.27;;;;;;;1.23;100.00;103646.13;5066364;28;20028;-76
2022/01/14 07:05:07;;;;;;;29.17;9.07;;;;;;;1.22;100.00;103641.81;5070706;28;20089;-76
2022/01/14 07:07:33;;;;;;;42.45;9.98;;;;;;;1.24;100.00;103627.44;5069887;28;20459;-76
2022/01/14 07:09:58;;;;;;;31.15;9.35;;;;;;;1.19;100.00;103618.63;5070068;28;20039;-76
2022/01/14 07:12:29;;;;;;;29.25;10.43;;;;;;;1.24;100.00;103636.78;5059245;28;20261;-76
2022/01/14 07:14:56;;;;;;;35.65;9.65;;;;;;;1.24;100.00;103639.34;5065375;28;20048;-76
2022/01/14 07:17:22;;;;;;;27.77;9.27;;;;;;;1.23;100.00;103643.56;5066536;28;20372;-76
2022/01/14 07:19:51;;;;;;;29.90;9.13;;;;;;;1.24;100.00;103647.00;5069480;28;20036;-76
2022/01/14 07:22:16;;;;;;;46.10;10.25;;;;;;;1.21;100.00;103645.16;5059706;28;20024;-76
2022/01/14 07:24:42;;;;;;;27.33;9.30;;;;;;;1.23;100.00;103650.38;5070025;28;20398;-76
2022/01/14 07:27:07;;;;;;;37.63;10.32;;;;;;;1.20;100.00;103653.63;5064299;28;20108;-76
2022/01/14 07:29:32;;;;;;;24.55;10.00;;;;;;;1.20;100.00;103661.28;5065425;28;20030;-76
2022/01/14 07:31:58;;;;;;;31.88;9.57;;;;;;;1.19;100.00;103668.06;5051920;28;20033;-76
2022/01/14 07:34:24;;;;;;;52.53;9.88;;;;;;;1.17;100.00;103658.53;5053505;28;20016;-76
2022/01/14 07:36:49;;;;;;;40.65;9.13;;;;;;;1.14;100.00;103648.16;5065814;28;20036;-76
2022/01/14 07:39:15;;;;;;;27.13;8.50;;;;;;;1.11;100.00;103656.50;5070251;28;20434;-76
2022/01/14 07:41:40;;;;;;;30.58;9.43;;;;;;;1.08;100.00;103661.44;5066532;28;20072;-76
2022/01/14 07:44:05;;;;;;;28.52;9.82;;;;;;;1.06;100.00;103659.56;5050282;28;20032;-76
2022/01/14 07:46:31;;;;;;;34.55;9.40;;;;;;;1.06;100.00;103662.13;5051078;28;20090;-76
2022/01/14 07:48:56;;;;;;;28.92;9.55;;;;;;;1.07;100.00;103674.09;5049098;28;20092;-76
2022/01/14 07:51:21;;;;;;;36.28;9.73;;;;;;;1.04;100.00;103664.56;5063033;28;20372;-76
2022/01/14 07:53:47;;;;;;;40.22;9.40;;;;;;;1.06;100.00;103667.22;5050207;28;20021;-76
2022/01/14 07:56:13;;;;;;;42.53;10.20;;;;;;;1.06;100.00;103667.22;5058601;28;20402;-76
2022/01/14 07:58:39;;;;;;;38.47;9.75;;;;;;;1.04;100.00;103648.38;5050047;28;20036;-76
2022/01/14 08:01:05;;;;;;;35.47;9.90;;;;;;;1.01;100.00;103646.53;5049715;28;20028;-77
2022/01/14 08:03:30;;;;;;;33.75;9.95;;;;;;;1.06;100.00;103649.34;5063232;28;20029;-76
2022/01/14 08:05:57;;;;;;;32.00;9.80;;;;;;;1.04;100.00;103641.59;5057663;28;20508;-76
2022/01/14 08:08:23;;;;;;;41.33;9.48;;;;;;;1.09;100.00;103645.28;5050284;28;20493;-76
2022/01/14 08:10:49;;;;;;;31.70;9.98;;;;;;;1.08;100.00;103635.00;5065880;28;20066;-76
2022/01/14 08:13:14;;;;;;;35.83;10.63;;;;;;;1.10;100.00;103647.06;5067068;28;20036;-76
2022/01/14 08:15:39;;;;;;;34.30;9.82;;;;;;;1.09;100.00;103632.53;5067643;28;20020;-76
2022/01/14 08:18:06;;;;;;;29.73;10.48;;;;;;;1.12;100.00;103636.94;5063804;28;20082;-81
2022/01/14 08:20:31;;;;;;;37.00;10.18;;;;;;;1.14;100.00;103650.69;5062895;28;20035;-82
2022/01/14 08:22:58;;;;;;;44.25;10.98;;;;;;;1.12;100.00;103639.50;5067071;28;20032;-81
2022/01/14 08:25:23;;;;;;;29.92;10.25;;;;;;;1.14;100.00;103653.25;5069118;28;20016;-81
2022/01/14 08:27:49;;;;;;;26.52;10.48;;;;;;;1.19;100.00;103662.94;5065337;28;20039;-81
2022/01/14 08:30:14;;;;;;;29.75;10.73;;;;;;;1.22;100.00;103661.38;5060723;28;20090;-82
2022/01/14 08:32:41;;;;;;;36.28;10.80;;;;;;;1.26;100.00;103659.09;5069443;28;20039;-81
2022/01/14 08:35:07;;;;;;;40.22;10.63;;;;;;;1.29;100.00;103663.50;5066732;28;20114;-82
2022/01/14 08:37:32;;;;;;;47.92;10.95;;;;;;;1.34;100.00;103667.22;5069089;28;20052;-81
2022/01/14 08:39:57;;;;;;;28.42;10.07;;;;;;;1.36;100.00;103648.63;5057476;28;20400;-82
2022/01/14 08:42:22;;;;;;;27.77;10.18;;;;;;;1.37;100.00;103662.25;5069203;28;20078;-81
2022/01/14 08:44:48;;;;;;;41.72;11.10;;;;;;;1.37;100.00;103658.03;5057914;28;20399;-81
2022/01/14 08:47:13;;;;;;;53.35;11.45;;;;;;;1.42;100.00;103666.88;5062039;28;20446;-81
2022/01/14 08:49:40;;;;;;;35.70;10.73;;;;;;;1.44;100.00;103655.06;5068790;28;20391;-81
2022/01/14 08:52:06;;;;;;;28.85;10.85;;;;;;;1.51;100.00;103671.63;5067627;28;20063;-82
2022/01/14 08:54:32;;;;;;;29.85;10.75;;;;;;;1.56;100.00;103672.81;5067649;28;20499;-75
2022/01/14 08:56:57;;;;;;;41.55;11.23;;;;;;;1.58;100.00;103664.41;5059342;28;20078;-76
2022/01/14 08:59:23;;;;;;;43.08;11.85;;;;;;;1.63;100.00;103667.25;5051181;28;20032;-77
2022/01/14 09:01:49;;;;;;;48.30;11.57;;;;;;;1.65;100.00;103664.75;5066778;28;20040;-76
2022/01/14 09:04:15;;;;;;;48.10;11.85;;;;;;;1.65;100.00;103646.88;5063426;28;20028;-77
2022/01/14 09:06:41;;;;;;;48.67;11.13;;;;;;;1.66;100.00;103651.19;5060690;28;20357;-77
2022/01/14 09:09:06;;;;;;;45.08;12.10;;;;;;;1.71;100.00;103650.66;5048364;28;20479;-77
2022/01/14 09:11:33;;;;;;;38.58;11.38;;;;;;;1.76;100.00;103664.63;5067667;28;20467;-77
2022/01/14 09:13:58;;;;;;;52.28;12.15;;;;;;;1.78;100.00;103657.00;5058259;28;20024;-77
2022/01/14 09:16:23;;;;;;;41.35;11.35;;;;;;;1.80;100.00;103650.31;5058436;28;20442;-77
2022/01/14 09:18:50;;;;;;;51.85;12.07;;;;;;;1.80;100.00;103652.88;5060536;28;20052;-77
2022/01/14 09:21:17;;;;;;;38.97;11.85;;;;;;;1.81;100.00;103658.06;5067760;28;20031;-77
2022/01/14 09:23:51;;;;;;;50.15;12.27;;;;;;;1.85;100.00;103665.13;5062574;28;20287;-78
2022/01/14 09:26:16;;;;;;;55.35;12.15;;;;;;;1.84;100.00;103662.50;5062776;28;20025;-78
2022/01/14 09:28:42;;;;;;;52.67;12.13;;;;;;;1.84;100.00;103668.47;5068094;28;20032;-78
2022/01/14 09:31:08;;;;;;;49.58;11.35;;;;;;;1.84;100.00;103671.03;5061110;28;20048;-78
2022/01/14 09:33:34;;;;;;;41.08;11.38;;;;;;;1.88;100.00;103672.09;5068740;28;20078;-78
2022/01/14 09:35:59;;;;;;;42.25;11.52;;;;;;;1.90;100.00;103681.63;5068731;28;20020;-78
2022/01/14 09:38:25;;;;;;;34.88;11.85;;;;;;;1.94;100.00;103667.31;5062844;28;20028;-77
2022/01/14 09:40:52;;;;;;;46.72;12.82;;;;;;;1.99;100.00;103677.00;5062738;28;20041;-78
2022/01/14 09:43:17;;;;;;;37.83;12.05;;;;;;;2.04;100.00;103661.06;5071702;28;20111;-78
2022/01/14 09:45:43;;;;;;;48.03;11.98;;;;;;;2.08;100.00;103680.91;5058501;28;20116;-77
2022/01/14 09:48:08;;;;;;;40.90;12.70;;;;;;;2.11;100.00;103681.97;5058656;28;20360;-78
2022/01/14 09:50:34;;;;;;;39.67;12.13;;;;;;;2.13;100.00;103688.03;5056335;28;20025;-78
2022/01/14 09:52:59;;;;;;;48.33;12.57;;;;;;;2.14;100.00;103689.78;5070091;28;20041;-78
2022/01/14 09:55:24;;;;;;;35.58;12.63;;;;;;;2.15;100.00;103683.88;5072026;28;20043;-77
2022/01/14 09:57:53;;;;;;;35.05;12.52;;;;;;;2.19;100.00;103698.59;5069994;28;20037;-78
2022/01/14 10:00:19;;;;;;;39.10;13.15;;;;;;;2.22;100.00;103686.00;5070657;28;20028;-77
2022/01/14 10:02:44;;;;;;;36.22;12.48;;;;;;;2.28;100.00;103683.78;5064528;28;20098;-77
2022/01/14 10:05:31;;;;;;;39.50;12.98;;;;;;;2.36;100.00;103689.31;5071267;28;20052;-77
2022/01/14 10:08:19;;;;;;;34.15;12.05;;;;;;;2.41;100.00;103690.44;5061927;28;20028;-77
2022/01/14 10:10:59;;;;;;;36.85;12.88;;;;;;;2.46;100.00;103696.69;5071774;28;20125;-77
2022/01/14 10:13:31;;;;;;;46.42;12.38;;;;;;;2.52;100.00;103691.94;5066289;28;20157;-77
2022/01/14 10:16:04;;;;;;;33.28;13.00;;;;;;;2.58;100.00;103687.16;5064154;28;20033;-77
2022/01/14 10:18:32;;;;;;;32.53;13.02;;;;;;;2.64;100.00;103686.59;5069900;28;20443;-77
2022/01/14 10:21:01;;;;;;;39.78;13.20;;;;;;;2.70;100.00;103679.25;5053792;28;20017;-77
2022/01/14 10:23:38;;;;;;;37.92;13.00;;;;;;;2.75;100.00;103686.38;5059943;28;20426;-77
2022/01/14 10:26:04;;;;;;;30.20;12.25;;;;;;;2.77;100.00;103692.47;5066189;28;20036;-77
2022/01/14 10:28:30;;;;;;;38.30;13.10;;;;;;;2.79;100.00;103690.00;5065477;28;20025;-74
2022/01/14 10:30:55;;;;;;;33.45;13.43;;;;;;;2.79;100.00;103674.63;5071155;28;20032;-74
2022/01/14 10:33:25;;;;;;;35.50;13.07;;;;;;;2.84;100.00;103678.31;5070618;28;20035;-75
2022/01/14 10:35:51;;;;;;;36.20;13.18;;;;;;;2.86;100.00;103679.28;5066904;28;20028;-76
2022/01/14 10:38:19;;;;;;;39.28;12.38;;;;;;;2.88;100.00;103669.97;5070303;28;20043;-76
2022/01/14 10:40:49;;;;;;;40.35;13.07;;;;;;;2.92;100.00;103677.03;5065768;28;20066;-76
2022/01/14 10:43:19;;;;;;;39.70;13.60;;;;;;;2.94;100.00;103674.53;5069449;28;20029;-76
2022/01/14 10:45:46;;;;;;;39.17;13.98;;;;;;;2.97;100.00;103683.28;5071136;28;20099;-76
2022/01/14 10:48:16;;;;;;;41.10;13.68;;;;;;;2.98;100.00;103677.38;5068352;28;20420;-76
2022/01/14 10:50:52;;;;;;;32.72;13.45;;;;;;;3.01;100.00;103676.63;5050527;28;20488;-77
2022/01/14 10:53:22;;;;;;;35.95;14.40;;;;;;;3.06;100.00;103675.22;5062300;28;20025;-77
2022/01/14 10:56:12;;;;;;;34.38;13.18;;;;;;;3.06;100.00;103670.09;5051282;28;20078;-77
2022/01/14 10:58:49;;;;;;;34.17;13.25;;;;;;;3.08;100.00;103663.34;5064837;28;20025;-85
2022/01/14 11:01:20;;;;;;;39.42;14.13;;;;;;;3.13;100.00;103656.78;5065327;28;20036;-82
2022/01/14 11:03:52;;;;;;;39.35;14.60;;;;;;;3.21;100.00;103659.75;5062704;28;20029;-82
2022/01/14 11:06:32;;;;;;;34.78;13.77;;;;;;;3.26;100.00;103653.19;5050808;28;20048;-82
2022/01/14 11:09:13;;;;;;;37.72;14.70;;;;;;;3.31;100.00;103646.59;5064830;28;20020;-82
2022/01/14 11:11:43;;;;;;;36.50;14.00;;;;;;;3.33;100.00;103645.88;5070175;28;20052;-82
2022/01/14 11:14:09;;;;;;;37.42;14.63;;;;;;;3.40;100.00;103644.50;5070061;28;20513;-81
2022/01/14 11:16:35;;;;;;;39.67;14.93;;;;;;;3.46;100.00;103645.69;5069240;28;20134;-81
2022/01/14 11:19:03;;;;;;;40.13;15.00;;;;;;;3.49;100.00;103642.38;5070636;28;20467;-82
2022/01/14 11:24:18;;;;;;;44.28;17.17;;;;;;;3.63;100.00;103640.50;5058016;28;20303;-82
2022/01/14 11:26:46;;;;;;;43.55;16.70;;;;;;;3.66;100.00;103646.69;5055139;28;20183;-82
2022/01/14 11:29:13;;;;;;;46.05;18.02;;;;;;;3.66;100.00;103646.69;5069970;28;20449;-82
2022/01/14 11:31:40;;;;;;;44.35;17.50;;;;;;;3.64;100.00;103639.72;5050744;28;20395;-81
2022/01/14 11:34:30;;;;;;;46.80;17.85;;;;;;;3.65;100.00;103647.50;5057782;28;20033;-81
2022/01/14 11:37:01;;;;;;;42.63;17.02;;;;;;;3.71;100.00;103642.66;5058049;28;20051;-82
2022/01/14 11:39:30;;;;;;;45.17;17.33;;;;;;;3.71;100.00;103650.34;5068406;28;20024;-76
2022/01/14 11:42:04;;;;;;;45.05;17.80;;;;;;;3.74;100.00;103652.19;5069518;28;20048;-76